Time,TemperatureF,DewpointF,PressureIn,WindDirection,WindDirectionDegrees,WindSpeedMPH,WindSpeedGustMPH,Humidity,HourlyPrecipIn,Conditions,Clouds,dailyrainin,SolarRadiationWatts/m^2,SoftwareType,DateUTC
2013-01-08 00:12:00,30.0,29.0,-100.00,WSW,249,5.0,9.0,97,0.00,,,0.10,0.000000,,2013-01-08 08:12:00,
2013-01-08 00:22:00,30.0,29.0,-100.00,WSW,249,5.0,9.0,97,0.00,,,0.10,0.000000,,2013-01-08 08:22:00,
2013-01-08 00:30:00,37.0,34.0,-100.00,WSW,248,9.0,11.0,87,0.00,,,0.10,0.000000,,2013-01-08 08:30:00,
2013-01-08 00:53:00,37.0,34.0,-100.00,WSW,248,9.0,11.0,87,0.00,,,0.10,0.000000,,2013-01-08 08:53:00,
2013-01-08 01:02:00,37.0,34.0,-100.00,WSW,248,9.0,11.0,87,0.00,,,0.10,0.000000,,2013-01-08 09:02:00,
2013-01-08 01:12:00,37.0,34.0,-100.00,WSW,248,9.0,11.0,87,0.00,,,0.10,0.000000,,2013-01-08 09:12:00,
2013-01-08 01:22:00,37.0,34.0,-100.00,WSW,248,9.0,11.0,87,0.00,,,0.10,0.000000,,2013-01-08 09:22:00,
2013-01-08 01:52:00,40.0,33.0,-100.00,WSW,252,11.0,16.0,75,0.00,,,0.10,0.000000,,2013-01-08 09:52:00,
2013-01-08 02:02:00,40.0,33.0,-100.00,WSW,252,11.0,16.0,75,0.00,,,0.10,0.000000,,2013-01-08 10:02:00,
2013-01-08 02:30:00,38.0,31.0,-100.00,West,264,12.0,14.0,77,-99.99,,,0.10,0.000000,,2013-01-08 10:30:00,
2013-01-08 02:52:00,38.0,31.0,-100.00,West,264,12.0,14.0,77,-99.99,,,0.10,0.000000,,2013-01-08 10:52:00,
2013-01-08 03:02:00,38.0,31.0,-100.00,West,264,12.0,14.0,77,-99.99,,,0.10,0.000000,,2013-01-08 11:02:00,
2013-01-08 03:12:00,38.0,31.0,-100.00,West,264,12.0,14.0,77,-99.99,,,0.10,0.000000,,2013-01-08 11:12:00,
2013-01-08 03:22:00,38.0,31.0,-100.00,West,264,12.0,14.0,77,-99.99,,,0.10,0.000000,,2013-01-08 11:22:00,
2013-01-08 03:30:00,40.0,32.0,-100.00,West,273,9.0,16.0,72,0.00,,,0.10,0.000000,,2013-01-08 11:30:00,
2013-01-08 03:53:00,40.0,32.0,-100.00,West,273,9.0,16.0,72,0.00,,,0.10,0.000000,,2013-01-08 11:53:00,
2013-01-08 04:02:00,40.0,32.0,-100.00,West,273,9.0,16.0,72,0.00,,,0.10,0.000000,,2013-01-08 12:02:00,
2013-01-08 04:12:00,40.0,32.0,-100.00,West,273,9.0,16.0,72,0.00,,,0.10,0.000000,,2013-01-08 12:12:00,
2013-01-08 04:22:00,40.0,32.0,-100.00,West,273,9.0,16.0,72,0.00,,,0.10,0.000000,,2013-01-08 12:22:00,
2013-01-08 04:30:00,40.0,32.0,-100.00,West,266,10.0,13.0,74,0.00,,,-99.99,0.000000,,2013-01-08 12:30:00,
2013-01-08 04:53:00,40.0,32.0,-100.00,West,266,10.0,13.0,74,0.00,,,-99.99,0.000000,,2013-01-08 12:53:00,
2013-01-08 05:03:00,40.0,32.0,-100.00,West,266,10.0,13.0,74,0.00,,,-99.99,0.000000,,2013-01-08 13:03:00,
2013-01-08 05:12:00,40.0,32.0,-100.00,West,266,10.0,13.0,74,0.00,,,-99.99,0.000000,,2013-01-08 13:12:00,
2013-01-08 05:22:00,40.0,32.0,-100.00,West,266,10.0,13.0,74,0.00,,,-99.99,0.000000,,2013-01-08 13:22:00,
2013-01-08 05:30:00,40.0,28.0,-100.00,West,269,7.0,14.0,63,0.00,,,0.10,0.000000,,2013-01-08 13:30:00,
2013-01-08 05:53:00,40.0,28.0,-100.00,West,269,7.0,14.0,63,0.00,,,0.10,0.000000,,2013-01-08 13:53:00,
2013-01-08 06:02:00,40.0,28.0,-100.00,West,269,7.0,14.0,63,0.00,,,0.10,0.000000,,2013-01-08 14:02:00,
2013-01-08 06:12:00,40.0,28.0,-100.00,West,269,7.0,14.0,63,0.00,,,0.10,0.000000,,2013-01-08 14:12:00,
2013-01-08 06:22:00,40.0,28.0,-100.00,West,269,7.0,14.0,63,0.00,,,0.10,0.000000,,2013-01-08 14:22:00,
2013-01-08 06:30:00,36.0,30.0,-100.00,East,101,6.0,10.0,80,0.00,,,0.10,0.000000,,2013-01-08 14:30:00,
2013-01-08 06:53:00,36.0,30.0,-100.00,East,101,6.0,10.0,80,0.00,,,0.10,0.000000,,2013-01-08 14:53:00,
2013-01-08 07:02:00,36.0,30.0,-100.00,East,101,6.0,10.0,80,0.00,,,0.10,0.000000,,2013-01-08 15:02:00,
2013-01-08 07:12:00,36.0,30.0,-100.00,East,101,6.0,10.0,80,0.00,,,0.10,0.000000,,2013-01-08 15:12:00,
2013-01-08 07:22:00,36.0,30.0,-100.00,East,101,6.0,10.0,80,0.00,,,0.10,0.000000,,2013-01-08 15:22:00,
2013-01-08 07:30:00,35.0,32.0,-100.00,NW,305,3.0,6.0,89,0.00,,,0.10,0.000000,,2013-01-08 15:30:00,
2013-01-08 07:53:00,35.0,32.0,-100.00,NW,305,3.0,6.0,89,0.00,,,0.10,0.000000,,2013-01-08 15:53:00,
2013-01-08 08:03:00,35.0,32.0,-100.00,NW,305,3.0,6.0,89,0.00,,,0.10,0.000000,,2013-01-08 16:03:00,
2013-01-08 08:12:00,35.0,32.0,-100.00,NW,305,3.0,6.0,89,0.00,,,0.10,0.000000,,2013-01-08 16:12:00,
2013-01-08 08:22:00,35.0,32.0,-100.00,NW,305,3.0,6.0,89,0.00,,,0.10,0.000000,,2013-01-08 16:22:00,
2013-01-08 08:30:00,36.0,33.0,-100.00,SW,231,2.0,7.0,89,0.00,,,0.10,7.000000,,2013-01-08 16:30:00,
2013-01-08 08:53:00,36.0,33.0,-100.00,SW,231,2.0,7.0,89,0.00,,,0.10,7.000000,,2013-01-08 16:53:00,
2013-01-08 09:03:00,36.0,33.0,-100.00,SW,231,2.0,7.0,89,0.00,,,0.10,7.000000,,2013-01-08 17:03:00,
2013-01-08 09:12:00,36.0,33.0,-100.00,SW,231,2.0,7.0,89,0.00,,,0.10,7.000000,,2013-01-08 17:12:00,
2013-01-08 09:22:00,36.0,33.0,-100.00,SW,231,2.0,7.0,89,0.00,,,0.10,7.000000,,2013-01-08 17:22:00,
2013-01-08 09:30:00,37.0,33.0,-100.00,NNW,336,4.0,6.0,86,0.00,,,0.10,45.000000,,2013-01-08 17:30:00,
2013-01-08 09:53:00,37.0,33.0,-100.00,NNW,336,4.0,6.0,86,0.00,,,0.10,45.000000,,2013-01-08 17:53:00,
2013-01-08 10:03:00,37.0,33.0,-100.00,NNW,336,4.0,6.0,86,0.00,,,0.10,45.000000,,2013-01-08 18:03:00,
2013-01-08 10:12:00,37.0,33.0,-100.00,NNW,336,4.0,6.0,86,0.00,,,0.10,45.000000,,2013-01-08 18:12:00,
2013-01-08 10:22:00,37.0,33.0,-100.00,NNW,336,4.0,6.0,86,0.00,,,0.10,45.000000,,2013-01-08 18:22:00,
2013-01-08 10:30:00,39.0,35.0,-100.00,NE,41,3.0,6.0,85,0.00,,,0.05,64.000000,,2013-01-08 18:30:00,
2013-01-08 10:53:00,39.0,35.0,-100.00,NE,41,3.0,6.0,85,0.00,,,0.05,64.000000,,2013-01-08 18:53:00,
2013-01-08 11:03:00,39.0,35.0,-100.00,NE,41,3.0,6.0,85,0.00,,,0.05,64.000000,,2013-01-08 19:03:00,
2013-01-08 11:12:00,39.0,35.0,-100.00,NE,41,3.0,6.0,85,0.00,,,0.05,64.000000,,2013-01-08 19:12:00,
2013-01-08 11:22:00,39.0,35.0,-100.00,NE,41,3.0,6.0,85,0.00,,,0.05,64.000000,,2013-01-08 19:22:00,
2013-01-08 11:30:00,39.0,36.0,-100.00,ESE,116,4.0,6.0,90,0.00,,,0.00,72.000000,,2013-01-08 19:30:00,
2013-01-08 11:53:00,39.0,36.0,-100.00,ESE,116,4.0,6.0,90,0.00,,,0.00,72.000000,,2013-01-08 19:53:00,
2013-01-08 12:02:00,39.0,36.0,-100.00,ESE,116,4.0,6.0,90,0.00,,,0.00,72.000000,,2013-01-08 20:02:00,
2013-01-08 12:12:00,39.0,36.0,-100.00,ESE,116,4.0,6.0,90,0.00,,,0.00,72.000000,,2013-01-08 20:12:00,
2013-01-08 12:22:00,39.0,36.0,-100.00,ESE,116,4.0,6.0,90,0.00,,,0.00,72.000000,,2013-01-08 20:22:00,
2013-01-08 12:30:00,40.0,38.0,-100.00,NE,38,2.0,6.0,92,0.00,,,0.00,79.000000,,2013-01-08 20:30:00,
2013-01-08 12:53:00,40.0,38.0,-100.00,NE,38,2.0,6.0,92,0.00,,,0.00,79.000000,,2013-01-08 20:53:00,
2013-01-08 13:02:00,40.0,38.0,-100.00,NE,38,2.0,6.0,92,0.00,,,0.00,79.000000,,2013-01-08 21:02:00,
2013-01-08 13:12:00,40.0,38.0,-100.00,NE,38,2.0,6.0,92,0.00,,,0.00,79.000000,,2013-01-08 21:12:00,
2013-01-08 13:22:00,40.0,38.0,-100.00,NE,38,2.0,6.0,92,0.00,,,0.00,79.000000,,2013-01-08 21:22:00,
2013-01-08 13:30:00,39.0,38.0,-100.00,NW,320,4.0,5.0,95,0.00,,,0.00,60.000000,,2013-01-08 21:30:00,
2013-01-08 13:53:00,39.0,38.0,-100.00,NW,320,4.0,5.0,95,0.00,,,0.00,60.000000,,2013-01-08 21:53:00,
2013-01-08 14:02:00,39.0,38.0,-100.00,NW,320,4.0,5.0,95,0.00,,,0.00,60.000000,,2013-01-08 22:02:00,
2013-01-08 14:12:00,39.0,38.0,-100.00,NW,320,4.0,5.0,95,0.00,,,0.00,60.000000,,2013-01-08 22:12:00,
2013-01-08 14:22:00,39.0,38.0,-100.00,NW,320,4.0,5.0,95,0.00,,,0.00,60.000000,,2013-01-08 22:22:00,
2013-01-08 14:30:00,39.0,38.0,-100.00,NW,313,4.0,5.0,97,0.00,,,0.00,47.000000,,2013-01-08 22:30:00,
2013-01-08 14:53:00,39.0,38.0,-100.00,NW,313,4.0,5.0,97,0.00,,,0.00,47.000000,,2013-01-08 22:53:00,
2013-01-08 15:02:00,39.0,38.0,-100.00,NW,313,4.0,5.0,97,0.00,,,0.00,47.000000,,2013-01-08 23:02:00,
2013-01-08 15:12:00,39.0,38.0,-100.00,NW,313,4.0,5.0,97,0.00,,,0.00,47.000000,,2013-01-08 23:12:00,
2013-01-08 15:22:00,39.0,38.0,-100.00,NW,313,4.0,5.0,97,0.00,,,0.00,47.000000,,2013-01-08 23:22:00,
2013-01-08 15:30:00,39.0,38.0,-100.00,West,280,5.0,7.0,98,0.00,,,0.00,29.000000,,2013-01-08 23:30:00,
2013-01-08 15:53:00,39.0,38.0,-100.00,West,280,5.0,7.0,98,0.00,,,0.00,29.000000,,2013-01-08 23:53:00,
2013-01-08 16:02:00,39.0,38.0,-100.00,West,280,5.0,7.0,98,0.00,,,0.00,29.000000,,2013-01-09 00:02:00,
2013-01-08 16:12:00,39.0,38.0,-100.00,West,280,5.0,7.0,98,0.00,,,0.00,29.000000,,2013-01-09 00:12:00,
2013-01-08 16:22:00,39.0,38.0,-100.00,West,280,5.0,7.0,98,0.00,,,0.00,29.000000,,2013-01-09 00:22:00,
2013-01-08 16:30:00,38.0,38.0,-100.00,West,273,5.0,7.0,99,0.00,,,0.00,10.000000,,2013-01-09 00:30:00,
2013-01-08 16:53:00,38.0,38.0,-100.00,West,273,5.0,7.0,99,0.00,,,0.00,10.000000,,2013-01-09 00:53:00,
2013-01-08 17:02:00,38.0,38.0,-100.00,West,273,5.0,7.0,99,0.00,,,0.00,10.000000,,2013-01-09 01:02:00,
2013-01-08 17:12:00,38.0,38.0,-100.00,West,273,5.0,7.0,99,0.00,,,0.00,10.000000,,2013-01-09 01:12:00,
2013-01-08 17:22:00,38.0,38.0,-100.00,West,273,5.0,7.0,99,0.00,,,0.00,10.000000,,2013-01-09 01:22:00,
2013-01-08 17:30:00,37.0,37.0,-100.00,WNW,285,4.0,6.0,99,0.00,,,0.00,0.000000,,2013-01-09 01:30:00,
2013-01-08 17:52:00,37.0,37.0,-100.00,WNW,285,4.0,6.0,99,0.00,,,0.00,0.000000,,2013-01-09 01:52:00,
2013-01-08 18:02:00,37.0,37.0,-100.00,WNW,285,4.0,6.0,99,0.00,,,0.00,0.000000,,2013-01-09 02:02:00,
2013-01-08 18:12:00,37.0,37.0,-100.00,WNW,285,4.0,6.0,99,0.00,,,0.00,0.000000,,2013-01-09 02:12:00,
2013-01-08 18:22:00,37.0,37.0,-100.00,WNW,285,4.0,6.0,99,0.00,,,0.00,0.000000,,2013-01-09 02:22:00,
2013-01-08 18:30:00,33.0,33.0,-100.00,WNW,293,3.0,6.0,99,0.00,,,0.00,0.000000,,2013-01-09 02:30:00,
2013-01-08 18:53:00,33.0,33.0,-100.00,WNW,293,3.0,6.0,99,0.00,,,0.00,0.000000,,2013-01-09 02:53:00,
2013-01-08 19:03:00,33.0,33.0,-100.00,WNW,293,3.0,6.0,99,0.00,,,0.00,0.000000,,2013-01-09 03:03:00,
2013-01-08 19:12:00,33.0,33.0,-100.00,WNW,293,3.0,6.0,99,0.00,,,0.00,0.000000,,2013-01-09 03:12:00,
2013-01-08 19:22:00,33.0,33.0,-100.00,WNW,293,3.0,6.0,99,0.00,,,0.00,0.000000,,2013-01-09 03:22:00,
2013-01-08 19:30:00,35.0,35.0,-100.00,NNE,23,5.0,8.0,99,0.00,,,0.00,0.000000,,2013-01-09 03:30:00,
2013-01-08 19:53:00,35.0,35.0,-100.00,NNE,23,5.0,8.0,99,0.00,,,0.00,0.000000,,2013-01-09 03:53:00,
2013-01-08 20:02:00,35.0,35.0,-100.00,NNE,23,5.0,8.0,99,0.00,,,0.00,0.000000,,2013-01-09 04:02:00,
2013-01-08 20:12:00,35.0,35.0,-100.00,NNE,23,5.0,8.0,99,0.00,,,0.00,0.000000,,2013-01-09 04:12:00,
2013-01-08 20:22:00,35.0,35.0,-100.00,NNE,23,5.0,8.0,99,0.00,,,0.00,0.000000,,2013-01-09 04:22:00,
2013-01-08 20:30:00,40.0,36.0,-100.00,SSW,192,3.0,19.0,87,0.00,,,0.00,0.000000,,2013-01-09 04:30:00,
2013-01-08 20:52:00,40.0,36.0,-100.00,SSW,192,3.0,19.0,87,0.00,,,0.00,0.000000,,2013-01-09 04:52:00,
2013-01-08 21:03:00,40.0,36.0,-100.00,SSW,192,3.0,19.0,87,0.00,,,0.00,0.000000,,2013-01-09 05:03:00,
2013-01-08 21:12:00,40.0,36.0,-100.00,SSW,192,3.0,19.0,87,0.00,,,0.00,0.000000,,2013-01-09 05:12:00,
2013-01-08 21:22:00,40.0,36.0,-100.00,SSW,192,3.0,19.0,87,0.00,,,0.00,0.000000,,2013-01-09 05:22:00,
2013-01-08 21:30:00,51.0,41.0,-100.00,South,191,24.0,32.0,69,0.00,,,-99.99,0.000000,,2013-01-09 05:30:00,
2013-01-08 21:52:00,51.0,41.0,-100.00,South,191,24.0,32.0,69,0.00,,,-99.99,0.000000,,2013-01-09 05:52:00,
2013-01-08 22:12:00,51.0,41.0,-100.00,South,191,24.0,32.0,69,0.00,,,-99.99,0.000000,,2013-01-09 06:12:00,
2013-01-08 22:22:00,51.0,41.0,-100.00,South,191,24.0,32.0,69,0.00,,,-99.99,0.000000,,2013-01-09 06:22:00,
2013-01-08 22:30:00,50.0,40.0,-100.00,South,188,21.0,30.0,69,0.00,,,0.00,0.000000,,2013-01-09 06:30:00,
2013-01-08 22:52:00,50.0,40.0,-100.00,South,188,21.0,30.0,69,0.00,,,0.00,0.000000,,2013-01-09 06:52:00,
2013-01-08 23:02:00,50.0,40.0,-100.00,South,188,21.0,30.0,69,0.00,,,0.00,0.000000,,2013-01-09 07:02:00,
2013-01-08 23:12:00,50.0,40.0,-100.00,South,188,21.0,30.0,69,0.00,,,0.00,0.000000,,2013-01-09 07:12:00,
2013-01-08 23:22:00,50.0,40.0,-100.00,South,188,21.0,30.0,69,0.00,,,0.00,0.000000,,2013-01-09 07:22:00,
2013-01-08 23:30:00,51.0,39.0,-100.00,South,185,21.0,28.0,64,0.00,,,0.00,0.000000,,2013-01-09 07:30:00,
2013-01-08 23:52:00,51.0,39.0,-100.00,South,185,21.0,28.0,64,0.00,,,0.00,0.000000,,2013-01-09 07:52:00,